KCRW

Yeager Airport

Charleston, West Virginia, USA
METAR KCRW 201954Z VRB03KT 10SM BKN035 BKN200 30/22 A2996 RMK AO2 SLP135 T03000222
Observed Flight Rules
Aug-20 @ 19:54 UTC (36 minutes ago) Visual Flight Rules
Wind Visibility Clouds
Variable at 3 knots 10 miles
  • Broken at 3,500' AGL
  • Broken at 20,000' AGL
Temperatures Readings
Current 30°C / 86°F
Dewpoint 22°C / 72°F
Humidity 62%
Altimeter 29.96" Hg
Pressure 1013.5 hPa
Elevation 309
METAR KCRW 201954Z VRB03KT 10SM BKN035 BKN200 30/22 A2996 RMK AO2 SLP135 T03000222
Observed Flight Rules
Aug-20 @ 19:54 UTC
(36 minutes ago)
VFR
Wind Visibility
Variable at 3 knots 10 miles
Clouds
  • Broken at 3,500' AGL
  • Broken at 20,000' AGL
Temperature Dewpoint
30°C / 86°F 22°C / 72°F
Humidity Altimeter Pressure
62% 29.96" Hg 1013.5 hPa